createdAt,value
2018-09-25T00:01:41.612Z,99.90
2018-09-25T00:04:14.959Z,99.90
2018-09-25T00:09:21.118Z,99.90
2018-09-25T00:14:27.549Z,99.90
2018-09-25T00:17:00.897Z,99.90
2018-09-25T00:19:34.342Z,99.90
2018-09-25T00:22:07.542Z,99.90
2018-09-25T00:24:40.926Z,99.90
2018-09-25T00:27:14.289Z,99.90
2018-09-25T00:29:47.620Z,99.90
2018-09-25T00:32:20.950Z,99.90
2018-09-25T00:34:54.138Z,99.90
2018-09-25T00:40:00.326Z,99.90
2018-09-25T00:42:33.580Z,99.90
2018-09-25T00:45:06.926Z,99.90
2018-09-25T00:47:40.161Z,99.90
2018-09-25T00:50:13.542Z,99.90
2018-09-25T00:52:46.873Z,99.90
2018-09-25T00:55:20.220Z,99.90
2018-09-25T00:57:53.561Z,99.90
2018-09-25T01:00:26.878Z,99.90
2018-09-25T01:03:00.330Z,99.90
2018-09-25T01:08:06.571Z,99.90
2018-09-25T01:13:12.779Z,99.90
2018-09-25T01:18:19.092Z,99.90
2018-09-25T01:20:52.354Z,99.90
2018-09-25T01:23:25.780Z,99.90
2018-09-25T01:25:59.077Z,99.90
2018-09-25T01:31:05.425Z,99.90
2018-09-25T01:33:38.818Z,99.90
2018-09-25T01:38:45.988Z,99.90
2018-09-25T01:41:19.477Z,99.90
2018-09-25T01:43:52.782Z,99.90
2018-09-25T01:46:26.128Z,99.90
2018-09-25T01:48:59.320Z,99.90
2018-09-25T01:54:05.816Z,99.90
2018-09-25T01:59:12.068Z,99.90
2018-09-25T02:01:45.523Z,99.90
2018-09-25T02:04:18.783Z,99.90
2018-09-25T02:09:25.140Z,99.90
2018-09-25T02:14:31.824Z,99.90
2018-09-25T02:19:38.235Z,99.90
2018-09-25T02:22:11.530Z,99.90
2018-09-25T02:24:44.985Z,99.90
2018-09-25T02:27:18.303Z,99.90
2018-09-25T02:29:51.533Z,99.90
2018-09-25T02:34:57.659Z,99.90
2018-09-25T02:42:37.180Z,99.90
2018-09-25T02:47:43.322Z,99.90
2018-09-25T02:50:16.760Z,99.90
2018-09-25T02:52:50.029Z,99.90
2018-09-25T02:55:23.262Z,99.90
2018-09-25T02:57:56.591Z,99.90
2018-09-25T03:00:29.908Z,99.90
2018-09-25T03:05:43.195Z,99.90
2018-09-25T03:10:49.339Z,99.90
2018-09-25T03:13:22.706Z,99.90
2018-09-25T03:15:56.026Z,99.90
2018-09-25T03:18:29.273Z,99.90
2018-09-25T03:21:02.610Z,99.90
2018-09-25T03:23:35.889Z,99.90
2018-09-25T03:26:09.314Z,99.90
2018-09-25T03:28:42.630Z,99.90
2018-09-25T03:33:48.815Z,99.90
2018-09-25T03:36:22.349Z,99.90
2018-09-25T03:38:55.806Z,99.90
2018-09-25T03:41:29.145Z,99.90
2018-09-25T03:44:02.586Z,99.90
2018-09-25T03:46:35.890Z,99.90
2018-09-25T03:49:09.114Z,99.90
2018-09-25T03:51:42.422Z,99.90
2018-09-25T03:54:15.831Z,99.90
2018-09-25T03:56:49.033Z,99.90
2018-09-25T03:59:22.377Z,99.90
2018-09-25T04:07:01.662Z,99.90
2018-09-25T04:09:34.841Z,99.90
2018-09-25T04:12:08.604Z,99.90
2018-09-25T04:14:41.846Z,99.90
2018-09-25T04:17:15.631Z,99.90
2018-09-25T04:19:48.982Z,99.90
2018-09-25T04:22:22.323Z,99.90
2018-09-25T04:27:29.198Z,99.90
2018-09-25T04:35:08.578Z,99.90
2018-09-25T04:40:14.818Z,99.90
2018-09-25T04:42:48.239Z,99.90
2018-09-25T04:45:21.535Z,99.90
2018-09-25T04:50:27.832Z,99.90
2018-09-25T04:53:01.160Z,99.90
2018-09-25T05:00:40.468Z,99.90
2018-09-25T05:05:46.688Z,99.90
2018-09-25T05:08:20.012Z,99.90
2018-09-25T05:10:53.368Z,99.90
2018-09-25T05:13:26.755Z,99.90
2018-09-25T05:16:00.727Z,99.90
2018-09-25T05:18:33.939Z,99.90
2018-09-25T05:21:07.688Z,99.90
2018-09-25T05:23:40.959Z,99.90
2018-09-25T05:26:14.272Z,99.90
2018-09-25T05:28:47.505Z,99.90
2018-09-25T05:31:20.963Z,99.90
2018-09-25T05:33:54.271Z,99.90
2018-09-25T05:36:27.499Z,99.90
2018-09-25T05:39:05.039Z,99.90
2018-09-25T05:41:38.536Z,99.90
2018-09-25T05:44:11.701Z,99.90
2018-09-25T05:46:45.112Z,99.90
2018-09-25T05:49:18.573Z,99.90
2018-09-25T05:51:52.121Z,99.90
2018-09-25T05:54:25.390Z,99.90
2018-09-25T05:56:58.571Z,99.90
2018-09-25T05:59:42.731Z,99.90
2018-09-25T06:02:15.976Z,99.90
2018-09-25T06:04:49.304Z,99.90
2018-09-25T06:07:22.633Z,99.90
2018-09-25T06:09:55.992Z,99.90
2018-09-25T06:12:29.180Z,99.90
2018-09-25T06:15:02.595Z,99.90
2018-09-25T06:17:35.968Z,99.90
2018-09-25T06:20:09.363Z,99.90
2018-09-25T06:25:15.581Z,99.90
2018-09-25T06:30:21.723Z,99.90
2018-09-25T06:32:54.903Z,99.90
2018-09-25T06:35:28.088Z,99.90
2018-09-25T06:38:01.397Z,99.90
2018-09-25T06:40:34.575Z,99.90
2018-09-25T06:43:07.896Z,99.90
2018-09-25T06:45:41.046Z,99.90
2018-09-25T06:48:14.395Z,99.90
2018-09-25T06:50:47.558Z,99.90
2018-09-25T06:53:20.895Z,99.90
2018-09-25T06:55:54.183Z,99.90
2018-09-25T06:58:27.385Z,99.90
2018-09-25T07:01:00.662Z,99.90
2018-09-25T07:06:06.981Z,99.90
2018-09-25T07:08:40.335Z,99.90
2018-09-25T07:11:13.619Z,99.90
2018-09-25T07:13:46.910Z,99.90
2018-09-25T07:16:20.082Z,99.90
2018-09-25T07:18:53.399Z,99.90
2018-09-25T07:21:26.848Z,99.90
2018-09-25T07:24:00.072Z,99.90
2018-09-25T07:26:33.413Z,99.90
2018-09-25T07:29:06.786Z,99.90
2018-09-25T07:31:40.124Z,99.90
2018-09-25T07:34:13.334Z,99.90
2018-09-25T07:36:46.647Z,99.90
2018-09-25T07:39:19.989Z,99.90
2018-09-25T07:41:53.360Z,99.90
2018-09-25T07:44:26.658Z,99.90
2018-09-25T07:47:00.102Z,99.90
2018-09-25T07:49:33.413Z,99.90
2018-09-25T07:54:39.841Z,99.90
2018-09-25T07:57:13.163Z,99.90
2018-09-25T08:02:19.539Z,99.90
2018-09-25T08:04:52.812Z,99.90
2018-09-25T08:07:26.055Z,99.90
2018-09-25T08:09:59.481Z,99.90
2018-09-25T08:12:32.745Z,99.90
2018-09-25T08:17:38.975Z,99.90
2018-09-25T08:20:12.734Z,99.90
2018-09-25T08:22:46.048Z,99.90
2018-09-25T08:27:52.676Z,99.90
2018-09-25T08:30:26.009Z,99.90
2018-09-25T08:32:59.358Z,99.90
2018-09-25T08:35:32.574Z,99.90
2018-09-25T08:38:05.901Z,99.90
2018-09-25T08:43:12.323Z,99.90
2018-09-25T08:48:18.571Z,99.90
2018-09-25T08:50:51.920Z,99.90
2018-09-25T08:55:58.219Z,99.90
2018-09-25T08:58:31.435Z,99.90
2018-09-25T09:01:05.070Z,99.90
2018-09-25T09:03:38.337Z,99.90
2018-09-25T09:06:11.675Z,99.90
2018-09-25T09:08:45.054Z,99.90
2018-09-25T09:11:18.421Z,99.90
2018-09-25T09:13:51.659Z,99.90
2018-09-25T09:16:24.834Z,99.90
2018-09-25T09:18:58.161Z,99.90
2018-09-25T09:21:31.407Z,99.90
2018-09-25T09:24:04.742Z,99.90
2018-09-25T09:26:37.880Z,99.90
2018-09-25T09:29:11.629Z,99.90
2018-09-25T09:31:44.901Z,99.90
2018-09-25T09:34:18.217Z,99.90
2018-09-25T09:36:51.584Z,99.90
2018-09-25T09:39:24.933Z,99.90
2018-09-25T09:41:58.430Z,99.90
2018-09-25T09:47:04.536Z,99.90
2018-09-25T09:49:37.744Z,99.90
2018-09-25T09:52:11.066Z,99.90
2018-09-25T09:54:44.403Z,99.90
2018-09-25T09:57:17.734Z,99.90
2018-09-25T10:02:24.393Z,99.90
2018-09-25T10:04:57.749Z,99.90
2018-09-25T10:07:31.052Z,99.90
2018-09-25T10:10:04.438Z,99.90
2018-09-25T10:12:37.798Z,99.90
2018-09-25T10:15:11.142Z,99.90
2018-09-25T10:17:44.294Z,99.90
2018-09-25T10:20:17.621Z,99.90
2018-09-25T10:22:50.847Z,99.90
2018-09-25T10:25:24.583Z,99.90
2018-09-25T10:27:57.977Z,99.90
2018-09-25T10:30:31.360Z,99.90
2018-09-25T10:33:04.682Z,99.90
2018-09-25T10:35:38.018Z,99.90
2018-09-25T10:38:11.236Z,99.90
2018-09-25T10:40:44.621Z,99.90
2018-09-25T10:43:17.949Z,99.90
2018-09-25T10:45:51.310Z,99.90
2018-09-25T10:48:24.524Z,99.90
2018-09-25T10:50:57.811Z,99.90
2018-09-25T10:53:31.150Z,99.90
2018-09-25T10:56:04.518Z,99.90
2018-09-25T10:58:37.963Z,99.90
2018-09-25T11:01:11.575Z,99.90
2018-09-25T11:03:44.861Z,99.90
2018-09-25T11:06:18.221Z,99.90
2018-09-25T11:08:51.628Z,99.90
2018-09-25T11:13:58.110Z,99.90
2018-09-25T11:16:31.448Z,99.90
2018-09-25T11:19:04.698Z,99.90
2018-09-25T11:21:38.156Z,99.90
2018-09-25T11:24:11.481Z,99.90
2018-09-25T11:26:44.775Z,99.90
2018-09-25T11:29:17.948Z,99.90
2018-09-25T11:31:51.132Z,99.90
2018-09-25T11:36:57.417Z,99.90
2018-09-25T11:44:36.986Z,99.90
2018-09-25T11:47:10.335Z,99.90
2018-09-25T11:49:43.891Z,99.90
2018-09-25T11:52:17.257Z,99.90
2018-09-25T11:54:50.481Z,99.90
2018-09-25T11:57:23.960Z,99.90
2018-09-25T12:02:30.207Z,99.90
2018-09-25T12:05:03.547Z,99.90
2018-09-25T12:07:36.929Z,99.90
2018-09-25T12:10:10.281Z,99.90
2018-09-25T12:12:43.461Z,99.90
2018-09-25T12:15:16.745Z,99.90
2018-09-25T12:17:50.085Z,99.90
2018-09-25T12:20:23.293Z,99.90
2018-09-25T12:22:56.690Z,99.90
2018-09-25T12:28:02.969Z,99.90
2018-09-25T12:30:36.114Z,99.90
2018-09-25T12:33:09.486Z,99.90
2018-09-25T12:35:42.683Z,99.90
2018-09-25T12:38:16.000Z,99.90
2018-09-25T12:40:49.349Z,99.90
2018-09-25T12:43:22.596Z,99.90
2018-09-25T12:45:55.810Z,99.90
2018-09-25T12:48:29.160Z,99.90
2018-09-25T12:51:02.383Z,99.90
2018-09-25T12:58:41.894Z,99.90
2018-09-25T13:01:15.291Z,99.90
2018-09-25T13:03:48.536Z,99.90
2018-09-25T13:06:21.832Z,99.90
2018-09-25T13:14:01.304Z,99.90
2018-09-25T13:16:34.562Z,99.90
2018-09-25T13:19:07.948Z,99.90
2018-09-25T13:21:41.271Z,99.90
2018-09-25T13:24:14.649Z,99.90
2018-09-25T13:26:48.097Z,99.90
2018-09-25T13:29:21.413Z,99.90
2018-09-25T13:31:54.683Z,99.90
2018-09-25T13:34:27.894Z,99.90
2018-09-25T13:39:34.307Z,99.90
2018-09-25T13:44:40.461Z,99.90
2018-09-25T13:47:13.801Z,99.90
2018-09-25T13:49:47.046Z,99.90
2018-09-25T13:52:20.406Z,99.90
2018-09-25T13:54:53.554Z,99.90
2018-09-25T13:57:26.856Z,99.90
2018-09-25T14:00:00.089Z,99.90
2018-09-25T14:02:33.390Z,99.90
2018-09-25T14:05:06.794Z,99.90
2018-09-25T14:10:12.985Z,99.90
2018-09-25T14:12:46.311Z,99.90
2018-09-25T14:15:19.568Z,99.90
2018-09-25T14:17:52.777Z,99.90
2018-09-25T14:28:05.475Z,99.90
2018-09-25T14:30:38.858Z,99.90
2018-09-25T14:33:12.266Z,99.90
2018-09-25T14:35:45.562Z,99.90
2018-09-25T14:38:18.925Z,99.90
2018-09-25T14:40:52.210Z,99.90
2018-09-25T14:43:25.602Z,99.90
2018-09-25T14:45:58.782Z,99.90
2018-09-25T14:48:32.217Z,99.90
2018-09-25T14:51:05.633Z,99.90
2018-09-25T14:53:38.957Z,99.20
2018-09-25T14:56:12.160Z,98.90
2018-09-25T14:58:45.534Z,98.80
2018-09-25T15:01:18.811Z,97.70
2018-09-25T15:03:52.200Z,98.00
2018-09-25T15:06:25.498Z,98.50
2018-09-25T15:11:39.230Z,99.90
2018-09-25T15:14:12.576Z,99.90
2018-09-25T15:16:45.910Z,99.90
2018-09-25T15:19:19.358Z,99.90
2018-09-25T15:21:52.994Z,99.90
2018-09-25T15:24:26.249Z,99.60
2018-09-25T15:26:59.499Z,99.90
2018-09-25T15:29:32.782Z,99.50
2018-09-25T15:32:06.111Z,99.30
2018-09-25T15:34:39.600Z,99.90
2018-09-25T15:37:12.912Z,99.90
2018-09-25T15:39:46.233Z,99.90
2018-09-25T15:42:19.464Z,99.90
2018-09-25T15:44:52.920Z,99.90
2018-09-25T15:47:26.208Z,99.90
2018-09-25T15:49:59.410Z,99.90
2018-09-25T15:52:32.781Z,99.90
2018-09-25T15:55:06.144Z,99.90
2018-09-25T15:57:39.681Z,99.90
2018-09-25T16:00:13.016Z,99.90
2018-09-25T16:05:19.269Z,99.90
2018-09-25T16:07:52.562Z,99.90
2018-09-25T16:10:25.932Z,99.90
2018-09-25T16:12:59.245Z,99.90
2018-09-25T16:15:32.562Z,99.90
2018-09-25T16:18:05.884Z,99.90
2018-09-25T16:20:39.512Z,99.90
2018-09-25T16:23:12.836Z,99.90
2018-09-25T16:28:19.419Z,99.90
2018-09-25T16:30:52.786Z,99.90
2018-09-25T16:38:32.289Z,99.90
2018-09-25T16:41:05.834Z,99.90
2018-09-25T16:43:39.027Z,99.90
2018-09-25T16:46:12.370Z,99.90
2018-09-25T16:48:45.600Z,99.90
2018-09-25T16:51:18.847Z,99.90
2018-09-25T16:53:52.162Z,99.90
2018-09-25T16:56:25.332Z,99.90
2018-09-25T16:58:58.708Z,99.90
2018-09-25T17:01:32.001Z,99.90
2018-09-25T17:04:05.446Z,99.90
2018-09-25T17:06:38.774Z,99.90
2018-09-25T17:09:12.586Z,99.90
2018-09-25T17:11:45.860Z,99.90
2018-09-25T17:14:19.180Z,99.90
2018-09-25T17:16:52.593Z,99.90
2018-09-25T17:19:25.948Z,99.90
2018-09-25T17:21:59.240Z,99.90
2018-09-25T17:24:32.468Z,99.90
2018-09-25T17:27:05.713Z,99.90
2018-09-25T17:29:39.110Z,99.90
2018-09-25T17:32:12.395Z,99.90
2018-09-25T17:42:24.689Z,99.90
2018-09-25T17:44:58.017Z,99.90
2018-09-25T17:47:31.334Z,99.90
2018-09-25T17:50:04.567Z,99.90
2018-09-25T17:55:11.743Z,99.90
2018-09-25T17:57:45.042Z,99.90
2018-09-25T18:00:18.449Z,99.90
2018-09-25T18:05:24.575Z,99.90
2018-09-25T18:07:57.724Z,99.90
2018-09-25T18:10:31.331Z,99.90
2018-09-25T18:18:10.634Z,99.90
2018-09-25T18:20:43.990Z,99.90
2018-09-25T18:23:17.169Z,99.90
2018-09-25T18:28:23.357Z,99.90
2018-09-25T18:33:29.615Z,99.90
2018-09-25T18:38:35.860Z,99.90
2018-09-25T18:41:09.110Z,99.90
2018-09-25T18:43:42.550Z,99.90
2018-09-25T18:46:15.834Z,99.90
2018-09-25T18:48:49.074Z,99.90
2018-09-25T18:51:22.289Z,99.90
2018-09-25T18:53:55.748Z,99.90
2018-09-25T18:59:01.981Z,99.90
2018-09-25T19:01:35.389Z,99.90
2018-09-25T19:04:08.839Z,99.90
2018-09-25T19:06:42.161Z,99.90
2018-09-25T19:09:15.562Z,99.90
2018-09-25T19:11:48.842Z,99.90
2018-09-25T19:14:22.026Z,99.90
2018-09-25T19:19:28.122Z,99.90
2018-09-25T19:22:01.416Z,99.90
2018-09-25T19:24:34.832Z,99.90
2018-09-25T19:29:40.971Z,99.90
2018-09-25T19:32:14.377Z,99.90
2018-09-25T19:34:47.841Z,99.90
2018-09-25T19:37:21.208Z,99.90
2018-09-25T19:42:27.649Z,99.90
2018-09-25T19:45:01.861Z,99.90
2018-09-25T19:52:41.130Z,99.90
2018-09-25T19:55:14.732Z,99.90
2018-09-25T19:57:48.055Z,99.90
2018-09-25T20:00:21.509Z,99.90
2018-09-25T20:05:28.084Z,99.90
2018-09-25T20:08:01.740Z,99.90
2018-09-25T20:13:08.354Z,99.90
2018-09-25T20:15:41.800Z,99.90
2018-09-25T20:18:15.124Z,99.90
2018-09-25T20:23:21.503Z,99.90
2018-09-25T20:25:54.955Z,99.90
2018-09-25T20:31:01.133Z,99.90
2018-09-25T20:33:34.489Z,99.90
2018-09-25T20:38:40.762Z,99.90
2018-09-25T20:41:13.964Z,99.90
2018-09-25T20:46:20.151Z,99.90
2018-09-25T20:48:53.340Z,99.90
2018-09-25T20:51:26.582Z,99.90
2018-09-25T20:53:59.924Z,99.90
2018-09-25T20:56:33.344Z,99.90
2018-09-25T20:59:06.672Z,99.90
2018-09-25T21:01:40.012Z,99.90
2018-09-25T21:04:13.417Z,99.90
2018-09-25T21:06:46.642Z,99.90
2018-09-25T21:09:19.829Z,99.90
2018-09-25T21:11:53.192Z,99.90
2018-09-25T21:14:26.556Z,99.90
2018-09-25T21:16:59.891Z,99.90
2018-09-25T21:19:33.134Z,99.90
2018-09-25T21:24:39.452Z,99.90
2018-09-25T21:27:12.703Z,99.90
2018-09-25T21:29:46.122Z,99.90
2018-09-25T21:32:19.433Z,99.90
2018-09-25T21:34:52.616Z,99.90
2018-09-25T21:37:26.032Z,99.90
2018-09-25T21:42:32.314Z,99.90
2018-09-25T21:45:05.796Z,99.90
2018-09-25T21:47:38.987Z,99.90
2018-09-25T21:50:12.277Z,99.90
2018-09-25T21:52:45.570Z,99.90
2018-09-25T21:55:18.913Z,99.90
2018-09-25T21:57:52.323Z,99.90
2018-09-25T22:00:25.758Z,99.90
2018-09-25T22:02:58.999Z,99.90
2018-09-25T22:05:32.214Z,99.90
2018-09-25T22:08:05.557Z,99.90
2018-09-25T22:10:38.784Z,99.90
2018-09-25T22:15:45.014Z,99.90
2018-09-25T22:18:18.363Z,99.90
2018-09-25T22:20:51.687Z,99.90
2018-09-25T22:23:25.089Z,99.90
2018-09-25T22:25:58.472Z,99.90
2018-09-25T22:31:04.798Z,99.90
2018-09-25T22:33:38.137Z,99.90
2018-09-25T22:36:11.450Z,99.90
2018-09-25T22:38:44.783Z,99.90
2018-09-25T22:41:18.158Z,99.90
2018-09-25T22:43:51.461Z,99.90
2018-09-25T22:46:24.656Z,99.90
2018-09-25T22:48:57.959Z,99.90
2018-09-25T22:51:31.198Z,99.90
2018-09-25T22:54:04.557Z,99.90
2018-09-25T22:56:37.941Z,99.90
2018-09-25T22:59:11.104Z,99.90
2018-09-25T23:04:17.480Z,99.90
2018-09-25T23:06:50.839Z,99.90
2018-09-25T23:09:24.057Z,99.90
2018-09-25T23:11:57.539Z,99.90
2018-09-25T23:14:30.902Z,99.90
2018-09-25T23:17:04.095Z,99.90
2018-09-25T23:19:37.466Z,99.90
2018-09-25T23:22:10.651Z,99.90
2018-09-25T23:24:43.968Z,99.90
2018-09-25T23:27:17.371Z,99.90
2018-09-25T23:29:50.664Z,99.90
2018-09-25T23:32:23.987Z,99.90
2018-09-25T23:37:30.057Z,99.90
2018-09-25T23:40:03.353Z,99.90
2018-09-25T23:45:08.694Z,99.90
2018-09-25T23:55:58.065Z,99.90
2018-09-25T23:58:35.425Z,99.90
